This is the latest recevied weather packets stored in our database for station/object AD7ZD. If no packets are shown the sender has not sent any weather packets the latest 10 day(s).
| Time | Temp. | Humidity | Pressure | Rain* | Wind** | Luminosity | Snow |
|---|---|---|---|---|---|---|---|
| 1777036262 | 0° C | 61% | 1010.9 hPa | 0 mm | - | 4 W/m² | - |
| 1777035959 | -0.56° C | 63% | 1010.9 hPa | 0 mm | - | 0 W/m² | - |
| 1777035653 | -0.56° C | 62% | 1010.9 hPa | 0 mm | - | 0 W/m² | - |
| 1777035349 | 0.56° C | 57% | 1011 hPa | 0 mm | - | 0 W/m² | - |
| 1777035045 | 0.56° C | 57% | 1011 hPa | 0 mm | - | 0 W/m² | - |
| 1777034742 | 1.11° C | 57% | 1010.8 hPa | 0 mm | - | 0 W/m² | - |
| 1777034439 | 1.11° C | 57% | 1011 hPa | 0 mm | - | 0 W/m² | - |
| 1777034136 | 1.11° C | 57% | 1011 hPa | 0 mm | - | 0 W/m² | - |
| 1777033835 | 1.67° C | 58% | 1011.2 hPa | 0 mm | - | 0 W/m² | - |
| 1777033532 | 0.56° C | 61% | 1011.1 hPa | 0 mm | - | 0 W/m² | - |
| 1777033230 | 1.11° C | 60% | 1011.1 hPa | 0 mm | - | 0 W/m² | - |
| 1777032927 | 1.67° C | 60% | 1011.1 hPa | 0 mm | - | 0 W/m² | - |
| 1777032622 | 1.67° C | 61% | 1011 hPa | 0 mm | - | 0 W/m² | - |
| 1777032317 | 1.11° C | 62% | 1011.2 hPa | 0 mm | - | 0 W/m² | - |
| 1777032013 | 1.11° C | 64% | 1011.4 hPa | 0 mm | - | 0 W/m² | - |
| 1777031709 | 0.56° C | 66% | 1011.3 hPa | 0 mm | - | 0 W/m² | - |
| 1777031403 | 0.56° C | 65% | 1011.3 hPa | 0 mm | - | 0 W/m² | - |
| 1777031098 | 0.56° C | 65% | 1011.3 hPa | 0 mm | - | 0 W/m² | - |
| 1777030795 | 0.56° C | 65% | 1011.3 hPa | 0 mm | - | 0 W/m² | - |
| 1777030495 | 0.56° C | 65% | 1011.2 hPa | 0 mm | - | 0 W/m² | - |
| 1777030191 | 0° C | 65% | 1011.4 hPa | 0 mm | - | 0 W/m² | - |
| 1777029887 | 0.56° C | 64% | 1011.3 hPa | 0 mm | - | 0 W/m² | - |
| 1777029585 | 1.11° C | 63% | 1011.3 hPa | 0 mm | - | 0 W/m² | - |
| 1777029283 | 1.67° C | 61% | 1011.2 hPa | 0 mm | - | 0 W/m² | - |
| 1777028978 | 1.67° C | 60% | 1011.4 hPa | 0 mm | - | 0 W/m² | - |
* Rain latest hour (hover to see other rain measurements)
** Current wind speed in m/s (hover to see current wind gust speed)